Annapolis, Illinois
Current Conditions -  °F | °C
As of 3:35 PM on Thursday 18 Dec 2014 (Local Time) from KRSV Reporting Station
Overcast Overcast  
Wind Chill: -1°   Ceiling: 9500
Heat Index: -1°   Visibility: 10mi
Dew Point: -5°   Wind: 0mph
Humidity: 76%   Direction: NA
Pressure: 30.26"   Gusts: NA
Location:  39.14°N, 87.82°W
Report Text: KRSV 182135Z AUTO 00000KT 10SM SCT055 OVC095 M01/M05 A3026 RMK AO2 T10081046
Loading
Personal Weather Stations






























Interactive Weather Map New forecast layout! Learn more

10-Day Weather Forecast

Advertisements
Track Severe Weather on mobile